sensor_id;sensor_type;location;lat;lon;timestamp;temperature;humidity
31809;DHT22;18379;48.208;-1.518;2023-01-10T00:01:19;6.10;99.90
31809;DHT22;18379;48.208;-1.518;2023-01-10T00:06:20;6.20;99.90
31809;DHT22;18379;48.208;-1.518;2023-01-10T00:11:22;6.20;99.90
31809;DHT22;18379;48.208;-1.518;2023-01-10T00:16:41;6.30;99.90
31809;DHT22;18379;48.208;-1.518;2023-01-10T00:21:42;6.40;99.90
31809;DHT22;18379;48.208;-1.518;2023-01-10T00:26:44;6.50;99.90
31809;DHT22;18379;48.208;-1.518;2023-01-10T00:31:50;6.50;99.90
31809;DHT22;18379;48.208;-1.518;2023-01-10T00:36:51;6.60;99.90
31809;DHT22;18379;48.208;-1.518;2023-01-10T00:41:52;6.60;99.90
31809;DHT22;18379;48.208;-1.518;2023-01-10T00:47:12;6.50;99.90
31809;DHT22;18379;48.208;-1.518;2023-01-10T00:52:13;6.50;99.90
31809;DHT22;18379;48.208;-1.518;2023-01-10T00:57:13;6.60;99.90
31809;DHT22;18379;48.208;-1.518;2023-01-10T01:02:14;6.70;99.90
31809;DHT22;18379;48.208;-1.518;2023-01-10T01:07:15;6.70;99.90
31809;DHT22;18379;48.208;-1.518;2023-01-10T01:12:16;6.80;99.90
31809;DHT22;18379;48.208;-1.518;2023-01-10T01:17:16;6.80;99.90
31809;DHT22;18379;48.208;-1.518;2023-01-10T01:22:18;6.80;99.90
31809;DHT22;18379;48.208;-1.518;2023-01-10T01:27:19;6.90;99.90
31809;DHT22;18379;48.208;-1.518;2023-01-10T01:32:20;6.90;99.90
31809;DHT22;18379;48.208;-1.518;2023-01-10T01:37:21;6.80;99.90
31809;DHT22;18379;48.208;-1.518;2023-01-10T01:42:31;6.90;99.90
31809;DHT22;18379;48.208;-1.518;2023-01-10T01:47:34;6.90;99.90
31809;DHT22;18379;48.208;-1.518;2023-01-10T01:52:37;6.80;99.90
31809;DHT22;18379;48.208;-1.518;2023-01-10T01:57:38;6.80;99.90
31809;DHT22;18379;48.208;-1.518;2023-01-10T02:02:52;6.70;99.90
31809;DHT22;18379;48.208;-1.518;2023-01-10T02:07:57;6.70;99.90
31809;DHT22;18379;48.208;-1.518;2023-01-10T02:13:03;6.70;99.90
31809;DHT22;18379;48.208;-1.518;2023-01-10T02:18:05;6.80;99.90
31809;DHT22;18379;48.208;-1.518;2023-01-10T02:34:17;6.90;99.90
31809;DHT22;18379;48.208;-1.518;2023-01-10T02:44:55;7.10;99.90
31809;DHT22;18379;48.208;-1.518;2023-01-10T02:49:57;7.10;99.90
31809;DHT22;18379;48.208;-1.518;2023-01-10T02:55:21;7.20;99.90
31809;DHT22;18379;48.208;-1.518;2023-01-10T03:00:55;7.20;99.90
31809;DHT22;18379;48.208;-1.518;2023-01-10T03:06:26;7.30;99.90
31809;DHT22;18379;48.208;-1.518;2023-01-10T03:11:32;7.30;99.90
31809;DHT22;18379;48.208;-1.518;2023-01-10T03:16:43;7.30;99.90
31809;DHT22;18379;48.208;-1.518;2023-01-10T03:21:46;7.30;99.90
31809;DHT22;18379;48.208;-1.518;2023-01-10T03:26:53;7.30;99.90
31809;DHT22;18379;48.208;-1.518;2023-01-10T03:31:59;7.40;99.90
31809;DHT22;18379;48.208;-1.518;2023-01-10T03:37:12;7.50;99.90
31809;DHT22;18379;48.208;-1.518;2023-01-10T03:48:01;7.60;99.90
31809;DHT22;18379;48.208;-1.518;2023-01-10T03:53:02;7.50;99.90
31809;DHT22;18379;48.208;-1.518;2023-01-10T03:58:03;7.60;99.90
31809;DHT22;18379;48.208;-1.518;2023-01-10T04:03:04;7.60;99.90
31809;DHT22;18379;48.208;-1.518;2023-01-10T04:08:05;7.60;99.90
31809;DHT22;18379;48.208;-1.518;2023-01-10T04:13:05;7.60;99.90
31809;DHT22;18379;48.208;-1.518;2023-01-10T04:18:06;7.60;99.90
31809;DHT22;18379;48.208;-1.518;2023-01-10T04:23:07;7.70;99.90
31809;DHT22;18379;48.208;-1.518;2023-01-10T04:28:08;7.70;99.90
31809;DHT22;18379;48.208;-1.518;2023-01-10T04:33:08;7.80;99.90
31809;DHT22;18379;48.208;-1.518;2023-01-10T04:38:11;7.90;99.90
31809;DHT22;18379;48.208;-1.518;2023-01-10T04:43:11;7.90;99.90
31809;DHT22;18379;48.208;-1.518;2023-01-10T04:48:12;7.90;99.90
31809;DHT22;18379;48.208;-1.518;2023-01-10T04:53:13;7.90;99.90
31809;DHT22;18379;48.208;-1.518;2023-01-10T04:58:14;8.00;99.90
31809;DHT22;18379;48.208;-1.518;2023-01-10T05:03:15;8.00;99.90
31809;DHT22;18379;48.208;-1.518;2023-01-10T05:08:19;8.10;99.90
31809;DHT22;18379;48.208;-1.518;2023-01-10T05:13:20;8.10;99.90
31809;DHT22;18379;48.208;-1.518;2023-01-10T05:18:21;8.10;99.90
31809;DHT22;18379;48.208;-1.518;2023-01-10T05:23:22;8.20;99.90
31809;DHT22;18379;48.208;-1.518;2023-01-10T05:28:23;8.20;99.90
31809;DHT22;18379;48.208;-1.518;2023-01-10T05:33:24;8.20;99.90
31809;DHT22;18379;48.208;-1.518;2023-01-10T05:38:25;8.20;99.90
31809;DHT22;18379;48.208;-1.518;2023-01-10T05:48:30;8.20;99.90
31809;DHT22;18379;48.208;-1.518;2023-01-10T05:53:31;8.30;99.90
31809;DHT22;18379;48.208;-1.518;2023-01-10T05:58:32;8.30;99.90
31809;DHT22;18379;48.208;-1.518;2023-01-10T06:03:33;8.30;99.90
31809;DHT22;18379;48.208;-1.518;2023-01-10T06:08:34;8.20;99.90
31809;DHT22;18379;48.208;-1.518;2023-01-10T06:13:36;8.20;99.90
31809;DHT22;18379;48.208;-1.518;2023-01-10T06:18:37;8.10;99.90
31809;DHT22;18379;48.208;-1.518;2023-01-10T06:23:37;8.20;99.90
31809;DHT22;18379;48.208;-1.518;2023-01-10T06:28:39;8.20;99.90
31809;DHT22;18379;48.208;-1.518;2023-01-10T06:33:40;8.30;99.90
31809;DHT22;18379;48.208;-1.518;2023-01-10T06:38:43;8.30;99.90
31809;DHT22;18379;48.208;-1.518;2023-01-10T06:43:45;8.30;99.90
31809;DHT22;18379;48.208;-1.518;2023-01-10T06:48:46;8.30;99.90
31809;DHT22;18379;48.208;-1.518;2023-01-10T06:53:47;8.40;99.90
31809;DHT22;18379;48.208;-1.518;2023-01-10T06:58:49;8.40;99.90
31809;DHT22;18379;48.208;-1.518;2023-01-10T07:03:49;8.50;99.90
31809;DHT22;18379;48.208;-1.518;2023-01-10T07:08:51;8.40;99.90
31809;DHT22;18379;48.208;-1.518;2023-01-10T07:13:54;8.50;99.90
31809;DHT22;18379;48.208;-1.518;2023-01-10T07:18:55;8.60;99.90
31809;DHT22;18379;48.208;-1.518;2023-01-10T07:23:55;8.60;99.90
31809;DHT22;18379;48.208;-1.518;2023-01-10T07:28:56;8.70;99.90
31809;DHT22;18379;48.208;-1.518;2023-01-10T07:33:57;8.80;99.90
31809;DHT22;18379;48.208;-1.518;2023-01-10T07:38:58;8.70;99.90
31809;DHT22;18379;48.208;-1.518;2023-01-10T07:43:58;8.80;99.90
31809;DHT22;18379;48.208;-1.518;2023-01-10T07:48:59;8.90;99.90
31809;DHT22;18379;48.208;-1.518;2023-01-10T07:54:00;8.90;99.90
31809;DHT22;18379;48.208;-1.518;2023-01-10T07:59:01;9.00;99.90
31809;DHT22;18379;48.208;-1.518;2023-01-10T08:04:01;9.00;99.90
31809;DHT22;18379;48.208;-1.518;2023-01-10T08:09:02;9.10;99.90
31809;DHT22;18379;48.208;-1.518;2023-01-10T08:14:04;9.20;99.90
31809;DHT22;18379;48.208;-1.518;2023-01-10T08:19:05;9.20;99.90
31809;DHT22;18379;48.208;-1.518;2023-01-10T08:24:06;9.30;99.90
31809;DHT22;18379;48.208;-1.518;2023-01-10T08:29:07;9.30;99.90
31809;DHT22;18379;48.208;-1.518;2023-01-10T08:34:08;9.40;99.90
31809;DHT22;18379;48.208;-1.518;2023-01-10T08:39:08;9.40;99.90
31809;DHT22;18379;48.208;-1.518;2023-01-10T08:44:09;9.50;99.90
31809;DHT22;18379;48.208;-1.518;2023-01-10T08:49:13;9.50;99.90
31809;DHT22;18379;48.208;-1.518;2023-01-10T08:54:14;9.60;99.90
31809;DHT22;18379;48.208;-1.518;2023-01-10T08:59:15;9.70;99.90
31809;DHT22;18379;48.208;-1.518;2023-01-10T09:04:16;9.80;99.90
31809;DHT22;18379;48.208;-1.518;2023-01-10T09:09:16;9.90;99.90
31809;DHT22;18379;48.208;-1.518;2023-01-10T09:14:17;10.00;99.90
31809;DHT22;18379;48.208;-1.518;2023-01-10T09:19:18;10.10;99.90
31809;DHT22;18379;48.208;-1.518;2023-01-10T09:24:18;10.20;99.90
31809;DHT22;18379;48.208;-1.518;2023-01-10T09:29:19;10.20;99.90
31809;DHT22;18379;48.208;-1.518;2023-01-10T09:34:20;10.30;99.90
31809;DHT22;18379;48.208;-1.518;2023-01-10T09:39:21;10.40;99.90
31809;DHT22;18379;48.208;-1.518;2023-01-10T09:55:24;10.60;99.90
31809;DHT22;18379;48.208;-1.518;2023-01-10T10:00:48;10.60;99.90
31809;DHT22;18379;48.208;-1.518;2023-01-10T10:05:50;10.70;99.90
31809;DHT22;18379;48.208;-1.518;2023-01-10T10:11:13;10.80;99.90
31809;DHT22;18379;48.208;-1.518;2023-01-10T10:33:05;11.30;99.90
31809;DHT22;18379;48.208;-1.518;2023-01-10T10:38:18;11.50;99.90
31809;DHT22;18379;48.208;-1.518;2023-01-10T10:43:23;11.60;99.90
31809;DHT22;18379;48.208;-1.518;2023-01-10T10:48:40;11.80;99.90
31809;DHT22;18379;48.208;-1.518;2023-01-10T10:53:41;12.00;99.90
31809;DHT22;18379;48.208;-1.518;2023-01-10T10:58:43;12.20;99.90
31809;DHT22;18379;48.208;-1.518;2023-01-10T11:04:01;12.30;99.90
31809;DHT22;18379;48.208;-1.518;2023-01-10T11:09:04;12.40;99.90
31809;DHT22;18379;48.208;-1.518;2023-01-10T11:14:07;12.60;99.90
31809;DHT22;18379;48.208;-1.518;2023-01-10T11:24:38;12.60;99.90
31809;DHT22;18379;48.208;-1.518;2023-01-10T11:29:56;12.70;99.90
31809;DHT22;18379;48.208;-1.518;2023-01-10T11:35:00;12.80;99.90
31809;DHT22;18379;48.208;-1.518;2023-01-10T11:40:20;13.00;99.90
31809;DHT22;18379;48.208;-1.518;2023-01-10T11:45:29;13.10;99.90
31809;DHT22;18379;48.208;-1.518;2023-01-10T11:50:33;13.10;99.90
31809;DHT22;18379;48.208;-1.518;2023-01-10T11:55:36;13.10;99.90
31809;DHT22;18379;48.208;-1.518;2023-01-10T12:00:43;13.20;99.90
31809;DHT22;18379;48.208;-1.518;2023-01-10T12:05:54;13.30;99.90
31809;DHT22;18379;48.208;-1.518;2023-01-10T12:11:01;13.30;99.90
31809;DHT22;18379;48.208;-1.518;2023-01-10T12:26:41;13.30;99.90
31809;DHT22;18379;48.208;-1.518;2023-01-10T12:31:43;13.50;99.90
31809;DHT22;18379;48.208;-1.518;2023-01-10T12:36:58;13.90;99.90
31809;DHT22;18379;48.208;-1.518;2023-01-10T12:47:45;13.80;99.90
31809;DHT22;18379;48.208;-1.518;2023-01-10T12:58:02;13.80;99.90
31809;DHT22;18379;48.208;-1.518;2023-01-10T13:03:10;13.80;99.90
31809;DHT22;18379;48.208;-1.518;2023-01-10T13:08:13;13.80;99.90
31809;DHT22;18379;48.208;-1.518;2023-01-10T13:13:41;13.80;99.90
31809;DHT22;18379;48.208;-1.518;2023-01-10T13:24:25;13.70;99.90
31809;DHT22;18379;48.208;-1.518;2023-01-10T13:29:38;13.60;99.90
31809;DHT22;18379;48.208;-1.518;2023-01-10T13:34:40;13.60;99.90
31809;DHT22;18379;48.208;-1.518;2023-01-10T13:39:42;13.60;99.90
31809;DHT22;18379;48.208;-1.518;2023-01-10T13:55:27;13.60;99.90
31809;DHT22;18379;48.208;-1.518;2023-01-10T14:05:54;13.60;99.90
31809;DHT22;18379;48.208;-1.518;2023-01-10T14:11:08;13.60;99.90
31809;DHT22;18379;48.208;-1.518;2023-01-10T14:16:50;13.60;99.90
31809;DHT22;18379;48.208;-1.518;2023-01-10T14:21:54;13.60;99.90
31809;DHT22;18379;48.208;-1.518;2023-01-10T14:26:58;13.50;99.90
31809;DHT22;18379;48.208;-1.518;2023-01-10T14:32:00;13.50;99.90
31809;DHT22;18379;48.208;-1.518;2023-01-10T14:37:06;13.40;99.90
31809;DHT22;18379;48.208;-1.518;2023-01-10T14:42:14;13.50;99.90
31809;DHT22;18379;48.208;-1.518;2023-01-10T14:47:34;13.50;99.90
31809;DHT22;18379;48.208;-1.518;2023-01-10T14:52:35;13.50;99.90
31809;DHT22;18379;48.208;-1.518;2023-01-10T14:57:35;13.50;99.90
31809;DHT22;18379;48.208;-1.518;2023-01-10T15:02:36;13.50;99.90
31809;DHT22;18379;48.208;-1.518;2023-01-10T15:07:38;13.50;99.90
31809;DHT22;18379;48.208;-1.518;2023-01-10T15:12:38;13.50;99.90
31809;DHT22;18379;48.208;-1.518;2023-01-10T15:17:41;13.50;99.90
31809;DHT22;18379;48.208;-1.518;2023-01-10T15:23:00;13.50;99.90
31809;DHT22;18379;48.208;-1.518;2023-01-10T15:28:01;13.50;99.90
31809;DHT22;18379;48.208;-1.518;2023-01-10T15:33:06;13.40;99.90
31809;DHT22;18379;48.208;-1.518;2023-01-10T15:38:17;13.30;99.90
31809;DHT22;18379;48.208;-1.518;2023-01-10T15:43:26;13.30;99.90
31809;DHT22;18379;48.208;-1.518;2023-01-10T15:48:34;13.40;99.90
31809;DHT22;18379;48.208;-1.518;2023-01-10T16:04:22;13.10;99.90
31809;DHT22;18379;48.208;-1.518;2023-01-10T16:09:23;13.10;99.90
31809;DHT22;18379;48.208;-1.518;2023-01-10T16:14:26;13.10;99.90
31809;DHT22;18379;48.208;-1.518;2023-01-10T16:19:27;13.00;99.90
31809;DHT22;18379;48.208;-1.518;2023-01-10T16:24:35;13.10;99.90
31809;DHT22;18379;48.208;-1.518;2023-01-10T16:29:36;13.00;99.90
31809;DHT22;18379;48.208;-1.518;2023-01-10T16:34:37;13.00;99.90
31809;DHT22;18379;48.208;-1.518;2023-01-10T16:39:38;13.00;99.90
31809;DHT22;18379;48.208;-1.518;2023-01-10T16:44:39;12.90;99.90
31809;DHT22;18379;48.208;-1.518;2023-01-10T16:49:41;12.80;99.90
31809;DHT22;18379;48.208;-1.518;2023-01-10T16:54:42;12.90;99.90
31809;DHT22;18379;48.208;-1.518;2023-01-10T16:59:42;12.80;99.90
31809;DHT22;18379;48.208;-1.518;2023-01-10T17:04:43;12.90;99.90
31809;DHT22;18379;48.208;-1.518;2023-01-10T17:09:44;12.90;99.90
31809;DHT22;18379;48.208;-1.518;2023-01-10T17:14:45;12.90;99.90
31809;DHT22;18379;48.208;-1.518;2023-01-10T17:19:47;12.90;99.90
31809;DHT22;18379;48.208;-1.518;2023-01-10T17:24:48;12.90;99.90
31809;DHT22;18379;48.208;-1.518;2023-01-10T17:29:49;12.90;99.90
31809;DHT22;18379;48.208;-1.518;2023-01-10T17:34:50;12.90;99.90
31809;DHT22;18379;48.208;-1.518;2023-01-10T17:39:51;12.90;99.90
31809;DHT22;18379;48.208;-1.518;2023-01-10T17:44:51;12.80;99.90
31809;DHT22;18379;48.208;-1.518;2023-01-10T17:49:52;12.80;99.90
31809;DHT22;18379;48.208;-1.518;2023-01-10T17:54:53;12.90;99.90
31809;DHT22;18379;48.208;-1.518;2023-01-10T17:59:54;12.90;99.90
31809;DHT22;18379;48.208;-1.518;2023-01-10T18:04:55;13.00;99.90
31809;DHT22;18379;48.208;-1.518;2023-01-10T18:09:57;13.00;99.90
31809;DHT22;18379;48.208;-1.518;2023-01-10T18:14:58;13.00;99.90
31809;DHT22;18379;48.208;-1.518;2023-01-10T18:19:58;13.00;99.90
31809;DHT22;18379;48.208;-1.518;2023-01-10T18:24:59;13.00;99.90
31809;DHT22;18379;48.208;-1.518;2023-01-10T18:30:00;13.00;99.90
31809;DHT22;18379;48.208;-1.518;2023-01-10T18:35:01;13.10;99.90
31809;DHT22;18379;48.208;-1.518;2023-01-10T18:40:02;13.10;99.90
31809;DHT22;18379;48.208;-1.518;2023-01-10T18:45:05;13.10;99.90
31809;DHT22;18379;48.208;-1.518;2023-01-10T18:50:06;13.20;99.90
31809;DHT22;18379;48.208;-1.518;2023-01-10T18:55:08;13.20;99.90
31809;DHT22;18379;48.208;-1.518;2023-01-10T19:00:10;13.20;99.90
31809;DHT22;18379;48.208;-1.518;2023-01-10T19:05:11;13.20;99.90
31809;DHT22;18379;48.208;-1.518;2023-01-10T19:10:12;13.20;99.90
31809;DHT22;18379;48.208;-1.518;2023-01-10T19:15:12;13.20;99.90
31809;DHT22;18379;48.208;-1.518;2023-01-10T19:20:13;13.20;99.90
31809;DHT22;18379;48.208;-1.518;2023-01-10T19:25:14;13.20;99.90
31809;DHT22;18379;48.208;-1.518;2023-01-10T19:30:15;13.20;99.90
31809;DHT22;18379;48.208;-1.518;2023-01-10T19:35:17;13.20;99.90
31809;DHT22;18379;48.208;-1.518;2023-01-10T19:40:18;13.10;99.90
31809;DHT22;18379;48.208;-1.518;2023-01-10T19:45:19;13.10;99.90
31809;DHT22;18379;48.208;-1.518;2023-01-10T19:50:20;13.10;99.90
31809;DHT22;18379;48.208;-1.518;2023-01-10T19:55:21;13.00;99.90
31809;DHT22;18379;48.208;-1.518;2023-01-10T20:00:22;13.00;99.90
31809;DHT22;18379;48.208;-1.518;2023-01-10T20:05:23;13.00;99.90
31809;DHT22;18379;48.208;-1.518;2023-01-10T20:10:24;12.90;99.90
31809;DHT22;18379;48.208;-1.518;2023-01-10T20:15:30;12.90;99.90
31809;DHT22;18379;48.208;-1.518;2023-01-10T20:20:41;12.90;99.90
31809;DHT22;18379;48.208;-1.518;2023-01-10T20:25:57;12.90;99.90
31809;DHT22;18379;48.208;-1.518;2023-01-10T20:30:59;12.90;99.90
31809;DHT22;18379;48.208;-1.518;2023-01-10T20:36:03;12.90;99.90
31809;DHT22;18379;48.208;-1.518;2023-01-10T20:41:09;12.90;99.90
31809;DHT22;18379;48.208;-1.518;2023-01-10T20:46:19;12.80;99.90
31809;DHT22;18379;48.208;-1.518;2023-01-10T20:51:28;12.80;99.90
31809;DHT22;18379;48.208;-1.518;2023-01-10T20:56:30;12.80;99.90
31809;DHT22;18379;48.208;-1.518;2023-01-10T21:01:32;12.80;99.90
31809;DHT22;18379;48.208;-1.518;2023-01-10T21:06:36;12.80;99.90
31809;DHT22;18379;48.208;-1.518;2023-01-10T21:12:02;12.80;99.90
31809;DHT22;18379;48.208;-1.518;2023-01-10T21:17:22;12.80;99.90
31809;DHT22;18379;48.208;-1.518;2023-01-10T21:34:08;12.70;99.90
31809;DHT22;18379;48.208;-1.518;2023-01-10T21:39:32;12.80;99.90
31809;DHT22;18379;48.208;-1.518;2023-01-10T21:44:32;12.80;99.90
31809;DHT22;18379;48.208;-1.518;2023-01-10T21:49:33;12.80;99.90
31809;DHT22;18379;48.208;-1.518;2023-01-10T21:54:34;12.80;99.90
31809;DHT22;18379;48.208;-1.518;2023-01-10T21:59:35;12.80;99.90
31809;DHT22;18379;48.208;-1.518;2023-01-10T22:04:45;12.80;99.90
31809;DHT22;18379;48.208;-1.518;2023-01-10T22:09:52;12.80;99.90
31809;DHT22;18379;48.208;-1.518;2023-01-10T22:14:55;12.90;99.90
31809;DHT22;18379;48.208;-1.518;2023-01-10T22:19:56;12.80;99.90
31809;DHT22;18379;48.208;-1.518;2023-01-10T22:24:57;12.90;99.90
31809;DHT22;18379;48.208;-1.518;2023-01-10T22:29:57;12.90;99.90
31809;DHT22;18379;48.208;-1.518;2023-01-10T22:35:25;12.90;99.90
31809;DHT22;18379;48.208;-1.518;2023-01-10T22:40:39;12.90;99.90
31809;DHT22;18379;48.208;-1.518;2023-01-10T22:45:41;12.90;99.90
31809;DHT22;18379;48.208;-1.518;2023-01-10T22:50:48;12.90;99.90
31809;DHT22;18379;48.208;-1.518;2023-01-10T22:55:49;12.90;99.90
31809;DHT22;18379;48.208;-1.518;2023-01-10T23:00:50;13.00;99.90
31809;DHT22;18379;48.208;-1.518;2023-01-10T23:05:55;13.00;99.90
31809;DHT22;18379;48.208;-1.518;2023-01-10T23:10:56;13.10;99.90
31809;DHT22;18379;48.208;-1.518;2023-01-10T23:15:59;13.00;99.90
31809;DHT22;18379;48.208;-1.518;2023-01-10T23:21:00;13.00;99.90
31809;DHT22;18379;48.208;-1.518;2023-01-10T23:26:07;13.00;99.90
31809;DHT22;18379;48.208;-1.518;2023-01-10T23:31:08;13.00;99.90
31809;DHT22;18379;48.208;-1.518;2023-01-10T23:36:09;13.10;99.90
31809;DHT22;18379;48.208;-1.518;2023-01-10T23:41:10;13.10;99.90
31809;DHT22;18379;48.208;-1.518;2023-01-10T23:46:11;13.10;99.90
31809;DHT22;18379;48.208;-1.518;2023-01-10T23:51:13;13.10;99.90
31809;DHT22;18379;48.208;-1.518;2023-01-10T23:56:14;13.10;99.90
